sensor_id;sensor_type;location;lat;lon;timestamp;pressure;altitude;pressure_sealevel;temperature;humidity
12803;BME280;6465;42.700;23.278;2024-03-08T00:02:17;95028.91;;;6.36;97.98
12803;BME280;6465;42.700;23.278;2024-03-08T00:04:45;95028.81;;;6.39;96.55
12803;BME280;6465;42.700;23.278;2024-03-08T00:07:12;95028.28;;;6.29;96.80
12803;BME280;6465;42.700;23.278;2024-03-08T00:09:39;95020.72;;;6.22;98.15
12803;BME280;6465;42.700;23.278;2024-03-08T00:12:06;95023.31;;;6.22;99.01
12803;BME280;6465;42.700;23.278;2024-03-08T00:14:34;95025.84;;;6.25;95.54
12803;BME280;6465;42.700;23.278;2024-03-08T00:17:03;95017.66;;;6.11;97.19
12803;BME280;6465;42.700;23.278;2024-03-08T00:19:31;95021.25;;;6.07;98.20
12803;BME280;6465;42.700;23.278;2024-03-08T00:21:58;95022.09;;;6.07;97.83
12803;BME280;6465;42.700;23.278;2024-03-08T00:24:26;95018.94;;;5.99;97.21
12803;BME280;6465;42.700;23.278;2024-03-08T00:26:54;95022.56;;;5.93;98.32
12803;BME280;6465;42.700;23.278;2024-03-08T00:29:21;95024.38;;;5.91;98.60
12803;BME280;6465;42.700;23.278;2024-03-08T00:31:48;95021.47;;;5.73;100.00
12803;BME280;6465;42.700;23.278;2024-03-08T00:34:15;95026.03;;;5.66;100.00
12803;BME280;6465;42.700;23.278;2024-03-08T00:36:43;95021.94;;;5.59;100.00
12803;BME280;6465;42.700;23.278;2024-03-08T00:39:10;95003.91;;;5.54;100.00
12803;BME280;6465;42.700;23.278;2024-03-08T00:41:38;95013.25;;;5.60;100.00
12803;BME280;6465;42.700;23.278;2024-03-08T00:44:05;95014.88;;;5.64;100.00
12803;BME280;6465;42.700;23.278;2024-03-08T00:46:32;95013.13;;;5.65;100.00
12803;BME280;6465;42.700;23.278;2024-03-08T00:48:59;95022.66;;;5.64;100.00
12803;BME280;6465;42.700;23.278;2024-03-08T00:51:26;95007.06;;;5.64;100.00
12803;BME280;6465;42.700;23.278;2024-03-08T00:53:55;95010.59;;;5.62;100.00
12803;BME280;6465;42.700;23.278;2024-03-08T00:56:22;95003.06;;;5.54;100.00
12803;BME280;6465;42.700;23.278;2024-03-08T00:58:50;94996.88;;;5.58;100.00
12803;BME280;6465;42.700;23.278;2024-03-08T01:01:18;94998.66;;;5.56;100.00
12803;BME280;6465;42.700;23.278;2024-03-08T01:03:45;95001.16;;;5.59;100.00
12803;BME280;6465;42.700;23.278;2024-03-08T01:06:14;94991.78;;;5.55;100.00
12803;BME280;6465;42.700;23.278;2024-03-08T01:08:41;95000.91;;;5.67;100.00
12803;BME280;6465;42.700;23.278;2024-03-08T01:11:10;94996.75;;;5.61;100.00
12803;BME280;6465;42.700;23.278;2024-03-08T01:13:38;94985.06;;;5.48;100.00
12803;BME280;6465;42.700;23.278;2024-03-08T01:16:05;94995.25;;;5.54;100.00
12803;BME280;6465;42.700;23.278;2024-03-08T01:18:32;94991.78;;;5.55;100.00
12803;BME280;6465;42.700;23.278;2024-03-08T01:20:59;94973.72;;;5.52;100.00
12803;BME280;6465;42.700;23.278;2024-03-08T01:23:26;94989.88;;;5.60;100.00
12803;BME280;6465;42.700;23.278;2024-03-08T01:25:54;94984.09;;;5.52;100.00
12803;BME280;6465;42.700;23.278;2024-03-08T01:28:25;94983.09;;;5.56;100.00
12803;BME280;6465;42.700;23.278;2024-03-08T01:30:53;94979.56;;;5.58;100.00
12803;BME280;6465;42.700;23.278;2024-03-08T01:33:22;94974.19;;;5.63;100.00
12803;BME280;6465;42.700;23.278;2024-03-08T01:35:51;94975.78;;;5.67;100.00
12803;BME280;6465;42.700;23.278;2024-03-08T01:38:18;94973.34;;;5.63;100.00
12803;BME280;6465;42.700;23.278;2024-03-08T01:40:46;94973.38;;;5.61;100.00
12803;BME280;6465;42.700;23.278;2024-03-08T01:43:20;94968.88;;;5.66;100.00
12803;BME280;6465;42.700;23.278;2024-03-08T01:45:48;94973.91;;;5.72;100.00
12803;BME280;6465;42.700;23.278;2024-03-08T01:48:16;94959.91;;;5.76;100.00
12803;BME280;6465;42.700;23.278;2024-03-08T01:50:45;94970.38;;;5.73;100.00
12803;BME280;6465;42.700;23.278;2024-03-08T01:53:13;94965.19;;;5.73;100.00
12803;BME280;6465;42.700;23.278;2024-03-08T01:55:41;94965.69;;;5.84;100.00
12803;BME280;6465;42.700;23.278;2024-03-08T01:58:09;94967.31;;;5.87;98.34
12803;BME280;6465;42.700;23.278;2024-03-08T02:00:38;94965.56;;;5.89;99.37
12803;BME280;6465;42.700;23.278;2024-03-08T02:03:09;94939.41;;;5.67;99.83
12803;BME280;6465;42.700;23.278;2024-03-08T02:05:36;94958.09;;;5.78;100.00
12803;BME280;6465;42.700;23.278;2024-03-08T02:08:04;94966.41;;;5.89;100.00
12803;BME280;6465;42.700;23.278;2024-03-08T02:10:32;94964.19;;;6.04;100.00
12803;BME280;6465;42.700;23.278;2024-03-08T02:13:01;94956.00;;;6.14;100.00
12803;BME280;6465;42.700;23.278;2024-03-08T02:15:50;94964.66;;;6.15;98.52
12803;BME280;6465;42.700;23.278;2024-03-08T02:18:18;94944.81;;;5.87;99.03
12803;BME280;6465;42.700;23.278;2024-03-08T02:20:47;94969.91;;;6.13;98.98
12803;BME280;6465;42.700;23.278;2024-03-08T02:23:14;94967.47;;;6.09;96.61
12803;BME280;6465;42.700;23.278;2024-03-08T02:25:41;94972.56;;;6.12;96.54
12803;BME280;6465;42.700;23.278;2024-03-08T02:28:10;94973.41;;;6.12;97.25
12803;BME280;6465;42.700;23.278;2024-03-08T02:30:38;94967.25;;;6.15;96.97
12803;BME280;6465;42.700;23.278;2024-03-08T02:33:05;94969.53;;;6.24;95.74
12803;BME280;6465;42.700;23.278;2024-03-08T02:35:32;94974.28;;;6.13;93.06
12803;BME280;6465;42.700;23.278;2024-03-08T02:38:01;94979.25;;;6.19;93.42
12803;BME280;6465;42.700;23.278;2024-03-08T02:40:29;94975.03;;;6.15;93.15
12803;BME280;6465;42.700;23.278;2024-03-08T02:42:56;94971.44;;;6.19;93.33
12803;BME280;6465;42.700;23.278;2024-03-08T02:45:23;94979.03;;;6.25;91.92
12803;BME280;6465;42.700;23.278;2024-03-08T02:47:51;94973.75;;;6.26;91.85
12803;BME280;6465;42.700;23.278;2024-03-08T02:50:18;94977.91;;;6.32;92.13
12803;BME280;6465;42.700;23.278;2024-03-08T02:52:45;94973.41;;;6.37;89.23
12803;BME280;6465;42.700;23.278;2024-03-08T02:55:14;94977.75;;;6.36;88.50
12803;BME280;6465;42.700;23.278;2024-03-08T02:57:42;94976.31;;;6.28;88.77
12803;BME280;6465;42.700;23.278;2024-03-08T03:00:10;94971.69;;;6.13;88.92
12803;BME280;6465;42.700;23.278;2024-03-08T03:02:38;94975.84;;;6.17;89.12
12803;BME280;6465;42.700;23.278;2024-03-08T03:05:05;94983.06;;;6.09;89.36
12803;BME280;6465;42.700;23.278;2024-03-08T03:07:35;94969.91;;;5.88;89.36
12803;BME280;6465;42.700;23.278;2024-03-08T03:10:03;94975.94;;;5.89;90.16
12803;BME280;6465;42.700;23.278;2024-03-08T03:12:31;94986.59;;;5.80;90.68
12803;BME280;6465;42.700;23.278;2024-03-08T03:14:59;94982.38;;;5.77;91.52
12803;BME280;6465;42.700;23.278;2024-03-08T03:17:26;94981.94;;;5.65;93.08
12803;BME280;6465;42.700;23.278;2024-03-08T03:19:53;94975.91;;;5.64;91.64
12803;BME280;6465;42.700;23.278;2024-03-08T03:22:21;94980.31;;;5.61;92.01
12803;BME280;6465;42.700;23.278;2024-03-08T03:24:48;94992.22;;;5.68;90.82
12803;BME280;6465;42.700;23.278;2024-03-08T03:27:17;94990.50;;;5.67;89.21
12803;BME280;6465;42.700;23.278;2024-03-08T03:29:47;94998.38;;;5.65;90.32
12803;BME280;6465;42.700;23.278;2024-03-08T03:32:15;94987.47;;;5.54;89.49
12803;BME280;6465;42.700;23.278;2024-03-08T03:34:44;94989.88;;;5.60;89.76
12803;BME280;6465;42.700;23.278;2024-03-08T03:37:11;95007.16;;;5.61;89.16
12803;BME280;6465;42.700;23.278;2024-03-08T03:39:39;95007.06;;;5.64;87.33
12803;BME280;6465;42.700;23.278;2024-03-08T03:42:14;95006.34;;;5.59;84.97
12803;BME280;6465;42.700;23.278;2024-03-08T03:44:42;95008.84;;;5.62;84.72
12803;BME280;6465;42.700;23.278;2024-03-08T03:47:12;95021.94;;;5.59;83.39
12803;BME280;6465;42.700;23.278;2024-03-08T03:49:40;95019.66;;;5.50;82.74
12803;BME280;6465;42.700;23.278;2024-03-08T03:52:07;95013.91;;;5.39;82.70
12803;BME280;6465;42.700;23.278;2024-03-08T03:54:34;95011.31;;;5.39;82.63
12803;BME280;6465;42.700;23.278;2024-03-08T03:57:03;95015.53;;;5.43;84.06
12803;BME280;6465;42.700;23.278;2024-03-08T03:59:30;95023.34;;;5.43;83.70
12803;BME280;6465;42.700;23.278;2024-03-08T04:01:57;95018.34;;;5.37;83.78
12803;BME280;6465;42.700;23.278;2024-03-08T04:04:25;95022.56;;;5.39;84.33
12803;BME280;6465;42.700;23.278;2024-03-08T04:06:52;95025.97;;;5.41;84.51
12803;BME280;6465;42.700;23.278;2024-03-08T04:09:19;95029.66;;;5.34;84.36
12803;BME280;6465;42.700;23.278;2024-03-08T04:11:48;95039.34;;;5.29;84.41
12803;BME280;6465;42.700;23.278;2024-03-08T04:14:15;95036.69;;;5.31;85.22
12803;BME280;6465;42.700;23.278;2024-03-08T04:16:42;95041.94;;;5.29;85.88
12803;BME280;6465;42.700;23.278;2024-03-08T04:19:09;95046.13;;;5.33;84.90
12803;BME280;6465;42.700;23.278;2024-03-08T04:21:37;95047.22;;;5.26;86.12
12803;BME280;6465;42.700;23.278;2024-03-08T04:24:05;95043.06;;;5.21;86.86
12803;BME280;6465;42.700;23.278;2024-03-08T04:26:32;95011.66;;;5.00;87.45
12803;BME280;6465;42.700;23.278;2024-03-08T04:28:59;95046.47;;;5.23;87.75
12803;BME280;6465;42.700;23.278;2024-03-08T04:31:27;95049.09;;;5.21;87.40
12803;BME280;6465;42.700;23.278;2024-03-08T04:33:54;95057.84;;;5.18;88.10
12803;BME280;6465;42.700;23.278;2024-03-08T04:36:21;95060.28;;;5.23;89.15
12803;BME280;6465;42.700;23.278;2024-03-08T04:38:49;95063.75;;;5.24;87.40
12803;BME280;6465;42.700;23.278;2024-03-08T04:41:16;95065.78;;;5.12;88.53
12803;BME280;6465;42.700;23.278;2024-03-08T04:43:44;95065.97;;;5.06;89.09
12803;BME280;6465;42.700;23.278;2024-03-08T04:46:11;95074.56;;;5.08;89.04
12803;BME280;6465;42.700;23.278;2024-03-08T04:48:38;95058.09;;;5.09;90.85
12803;BME280;6465;42.700;23.278;2024-03-08T04:51:07;95068.56;;;5.06;92.04
12803;BME280;6465;42.700;23.278;2024-03-08T04:53:35;95066.13;;;5.02;92.69
12803;BME280;6465;42.700;23.278;2024-03-08T04:56:04;95067.72;;;5.06;94.04
12803;BME280;6465;42.700;23.278;2024-03-08T04:58:32;95070.00;;;5.16;93.66
12803;BME280;6465;42.700;23.278;2024-03-08T05:01:00;95063.63;;;5.27;92.17
12803;BME280;6465;42.700;23.278;2024-03-08T05:03:27;95071.22;;;5.33;91.98
12803;BME280;6465;42.700;23.278;2024-03-08T05:05:55;95074.44;;;5.41;91.57
12803;BME280;6465;42.700;23.278;2024-03-08T05:08:23;95080.22;;;5.50;90.90
12803;BME280;6465;42.700;23.278;2024-03-08T05:10:49;95077.91;;;5.69;90.39
12803;BME280;6465;42.700;23.278;2024-03-08T05:13:18;95076.41;;;5.62;89.16
12803;BME280;6465;42.700;23.278;2024-03-08T05:15:48;95082.63;;;5.56;89.64
12803;BME280;6465;42.700;23.278;2024-03-08T05:18:15;95094.00;;;5.52;89.77
12803;BME280;6465;42.700;23.278;2024-03-08T05:20:42;95085.66;;;5.43;90.92
12803;BME280;6465;42.700;23.278;2024-03-08T05:23:09;95091.59;;;5.46;91.29
12803;BME280;6465;42.700;23.278;2024-03-08T05:25:36;95106.63;;;5.37;92.04
12803;BME280;6465;42.700;23.278;2024-03-08T05:28:04;95097.34;;;5.28;90.41
12803;BME280;6465;42.700;23.278;2024-03-08T05:30:32;95111.06;;;5.04;93.21
12803;BME280;6465;42.700;23.278;2024-03-08T05:33:01;95111.97;;;5.01;94.66
12803;BME280;6465;42.700;23.278;2024-03-08T05:35:29;95111.16;;;4.99;95.27
12803;BME280;6465;42.700;23.278;2024-03-08T05:37:56;95120.00;;;4.92;95.22
12803;BME280;6465;42.700;23.278;2024-03-08T05:40:23;95120.00;;;4.92;95.27
12803;BME280;6465;42.700;23.278;2024-03-08T05:42:51;95120.09;;;4.89;95.28
12803;BME280;6465;42.700;23.278;2024-03-08T05:45:18;95124.03;;;4.71;95.15
12803;BME280;6465;42.700;23.278;2024-03-08T05:47:46;95130.34;;;4.63;96.05
12803;BME280;6465;42.700;23.278;2024-03-08T05:50:14;95134.94;;;4.52;98.59
12803;BME280;6465;42.700;23.278;2024-03-08T05:52:41;95137.53;;;4.52;99.06
12803;BME280;6465;42.700;23.278;2024-03-08T05:55:08;95140.72;;;4.63;99.42
12803;BME280;6465;42.700;23.278;2024-03-08T05:57:35;95145.72;;;4.70;98.87
12803;BME280;6465;42.700;23.278;2024-03-08T06:00:04;95141.78;;;4.56;97.46
12803;BME280;6465;42.700;23.278;2024-03-08T06:02:31;95154.16;;;4.45;97.55
12803;BME280;6465;42.700;23.278;2024-03-08T06:04:59;95154.41;;;4.35;99.54
12803;BME280;6465;42.700;23.278;2024-03-08T06:07:27;95158.69;;;4.36;99.67
12803;BME280;6465;42.700;23.278;2024-03-08T06:09:55;95162.91;;;4.41;98.78
12803;BME280;6465;42.700;23.278;2024-03-08T06:12:22;95168.97;;;4.39;99.02
12803;BME280;6465;42.700;23.278;2024-03-08T06:14:54;95168.25;;;4.34;99.31
12803;BME280;6465;42.700;23.278;2024-03-08T06:17:21;95160.47;;;4.34;99.98
12803;BME280;6465;42.700;23.278;2024-03-08T06:19:51;95165.50;;;4.41;100.00
12803;BME280;6465;42.700;23.278;2024-03-08T06:22:19;95159.25;;;4.48;99.65
12803;BME280;6465;42.700;23.278;2024-03-08T06:24:46;95168.66;;;4.52;99.10
12803;BME280;6465;42.700;23.278;2024-03-08T06:27:13;95170.13;;;4.62;97.66
12803;BME280;6465;42.700;23.278;2024-03-08T06:29:40;95168.53;;;4.58;97.16
12803;BME280;6465;42.700;23.278;2024-03-08T06:32:07;95168.72;;;4.50;97.26
12803;BME280;6465;42.700;23.278;2024-03-08T06:34:34;95171.41;;;4.46;98.55
12803;BME280;6465;42.700;23.278;2024-03-08T06:37:01;95173.06;;;4.50;98.21
12803;BME280;6465;42.700;23.278;2024-03-08T06:39:29;95176.38;;;4.55;98.01
12803;BME280;6465;42.700;23.278;2024-03-08T06:41:58;95173.56;;;4.64;97.34
12803;BME280;6465;42.700;23.278;2024-03-08T06:44:25;95177.75;;;4.68;96.63
12803;BME280;6465;42.700;23.278;2024-03-08T06:46:52;95177.34;;;4.83;96.65
12803;BME280;6465;42.700;23.278;2024-03-08T06:49:19;95175.25;;;4.97;96.26
12803;BME280;6465;42.700;23.278;2024-03-08T06:51:46;95180.44;;;4.97;95.51
12803;BME280;6465;42.700;23.278;2024-03-08T06:54:13;95180.78;;;5.16;95.87
12803;BME280;6465;42.700;23.278;2024-03-08T06:56:41;95181.03;;;5.38;95.65
12803;BME280;6465;42.700;23.278;2024-03-08T06:59:09;95165.34;;;5.41;92.74
12803;BME280;6465;42.700;23.278;2024-03-08T07:01:36;95187.47;;;5.54;92.31
12803;BME280;6465;42.700;23.278;2024-03-08T07:04:04;95181.75;;;5.72;91.36
12803;BME280;6465;42.700;23.278;2024-03-08T07:06:32;95178.22;;;5.73;90.25
12803;BME280;6465;42.700;23.278;2024-03-08T07:08:59;95183.22;;;5.79;90.50
12803;BME280;6465;42.700;23.278;2024-03-08T07:11:26;95168.22;;;5.90;89.31
12803;BME280;6465;42.700;23.278;2024-03-08T07:13:55;95181.88;;;5.97;89.21
12803;BME280;6465;42.700;23.278;2024-03-08T07:16:23;95187.28;;;5.89;88.38
12803;BME280;6465;42.700;23.278;2024-03-08T07:18:52;95180.69;;;5.78;88.95
12803;BME280;6465;42.700;23.278;2024-03-08T07:21:19;95194.09;;;5.64;89.17
12803;BME280;6465;42.700;23.278;2024-03-08T07:23:46;95186.16;;;5.69;90.10
12803;BME280;6465;42.700;23.278;2024-03-08T07:26:28;95195.88;;;5.62;88.97
12803;BME280;6465;42.700;23.278;2024-03-08T07:28:57;95195.28;;;5.52;90.18
12803;BME280;6465;42.700;23.278;2024-03-08T07:31:24;95194.63;;;5.46;92.52
12803;BME280;6465;42.700;23.278;2024-03-08T07:34:00;95198.50;;;5.61;92.48
12803;BME280;6465;42.700;23.278;2024-03-08T07:36:28;95206.78;;;5.73;91.94
12803;BME280;6465;42.700;23.278;2024-03-08T07:38:55;95201.28;;;5.54;91.68
12803;BME280;6465;42.700;23.278;2024-03-08T07:41:23;95208.38;;;5.49;92.14
12803;BME280;6465;42.700;23.278;2024-03-08T07:43:50;95204.59;;;5.30;93.25
12803;BME280;6465;42.700;23.278;2024-03-08T07:46:19;95200.84;;;5.40;93.53
12803;BME280;6465;42.700;23.278;2024-03-08T07:48:46;95202.78;;;5.63;94.72
12803;BME280;6465;42.700;23.278;2024-03-08T07:51:16;95205.81;;;5.48;90.71
12803;BME280;6465;42.700;23.278;2024-03-08T07:53:43;95209.69;;;5.64;91.44
12803;BME280;6465;42.700;23.278;2024-03-08T07:56:10;95203.63;;;5.64;90.29
12803;BME280;6465;42.700;23.278;2024-03-08T07:58:39;95205.00;;;5.46;91.60
12803;BME280;6465;42.700;23.278;2024-03-08T08:01:07;95204.75;;;5.55;91.18
12803;BME280;6465;42.700;23.278;2024-03-08T08:03:35;95204.84;;;5.52;92.75
12803;BME280;6465;42.700;23.278;2024-03-08T08:06:03;95206.28;;;5.62;91.82
12803;BME280;6465;42.700;23.278;2024-03-08T08:08:31;95201.72;;;5.70;90.01
12803;BME280;6465;42.700;23.278;2024-03-08T08:10:57;95204.22;;;6.03;89.31
12803;BME280;6465;42.700;23.278;2024-03-08T08:13:26;95199.94;;;6.00;86.28
12803;BME280;6465;42.700;23.278;2024-03-08T08:15:57;95197.69;;;6.17;85.52
12803;BME280;6465;42.700;23.278;2024-03-08T08:18:24;95205.91;;;6.31;85.38
12803;BME280;6465;42.700;23.278;2024-03-08T08:20:53;95198.81;;;6.09;83.27
12803;BME280;6465;42.700;23.278;2024-03-08T08:23:20;95196.13;;;6.12;83.62
12803;BME280;6465;42.700;23.278;2024-03-08T08:25:47;95199.59;;;6.12;83.17
12803;BME280;6465;42.700;23.278;2024-03-08T08:28:15;95192.88;;;6.05;83.22
12803;BME280;6465;42.700;23.278;2024-03-08T08:30:44;95200.91;;;6.25;83.70
12803;BME280;6465;42.700;23.278;2024-03-08T08:33:11;95205.06;;;6.57;82.59
12803;BME280;6465;42.700;23.278;2024-03-08T08:35:38;95203.59;;;6.75;81.75
12803;BME280;6465;42.700;23.278;2024-03-08T08:38:06;95199.78;;;6.85;80.47
12803;BME280;6465;42.700;23.278;2024-03-08T08:40:34;95186.50;;;6.93;79.03
12803;BME280;6465;42.700;23.278;2024-03-08T08:43:01;95191.56;;;6.72;77.16
12803;BME280;6465;42.700;23.278;2024-03-08T08:45:29;95191.44;;;6.75;77.76
12803;BME280;6465;42.700;23.278;2024-03-08T08:47:57;95182.72;;;6.76;78.75
12803;BME280;6465;42.700;23.278;2024-03-08T08:50:25;95188.63;;;7.06;78.23
12803;BME280;6465;42.700;23.278;2024-03-08T08:52:54;95181.34;;;7.16;75.74
12803;BME280;6465;42.700;23.278;2024-03-08T08:55:22;95192.44;;;7.21;74.08
12803;BME280;6465;42.700;23.278;2024-03-08T08:57:51;95188.28;;;7.40;75.55
12803;BME280;6465;42.700;23.278;2024-03-08T09:00:18;95191.84;;;7.61;74.23
12803;BME280;6465;42.700;23.278;2024-03-08T09:02:46;95186.19;;;7.50;73.37
12803;BME280;6465;42.700;23.278;2024-03-08T09:05:13;95194.44;;;7.61;72.60
12803;BME280;6465;42.700;23.278;2024-03-08T09:07:42;95190.31;;;7.55;72.46
12803;BME280;6465;42.700;23.278;2024-03-08T09:10:10;95185.03;;;7.57;73.71
12803;BME280;6465;42.700;23.278;2024-03-08T09:12:39;95198.66;;;7.65;72.05
12803;BME280;6465;42.700;23.278;2024-03-08T09:15:07;95182.16;;;7.65;71.17
12803;BME280;6465;42.700;23.278;2024-03-08T09:17:36;95185.91;;;7.57;72.18
12803;BME280;6465;42.700;23.278;2024-03-08T09:20:23;95178.28;;;7.75;73.22
12803;BME280;6465;42.700;23.278;2024-03-08T09:22:50;95169.59;;;7.97;72.88
12803;BME280;6465;42.700;23.278;2024-03-08T09:25:17;95182.94;;;8.12;72.28
12803;BME280;6465;42.700;23.278;2024-03-08T09:27:45;95175.28;;;7.85;70.84
12803;BME280;6465;42.700;23.278;2024-03-08T09:30:13;95187.38;;;7.65;71.13
12803;BME280;6465;42.700;23.278;2024-03-08T09:32:40;95183.44;;;7.30;72.84
12803;BME280;6465;42.700;23.278;2024-03-08T09:35:09;95181.09;;;6.99;72.74
12803;BME280;6465;42.700;23.278;2024-03-08T09:37:36;95176.31;;;7.11;72.89
12803;BME280;6465;42.700;23.278;2024-03-08T09:40:04;95180.53;;;7.39;72.63
12803;BME280;6465;42.700;23.278;2024-03-08T09:42:34;95176.16;;;7.63;71.31
12803;BME280;6465;42.700;23.278;2024-03-08T09:45:08;95183.28;;;7.81;72.58
12803;BME280;6465;42.700;23.278;2024-03-08T09:47:38;95183.50;;;7.75;70.92
12803;BME280;6465;42.700;23.278;2024-03-08T09:50:07;95187.91;;;7.96;71.28
12803;BME280;6465;42.700;23.278;2024-03-08T09:52:35;95170.81;;;8.11;71.33
12803;BME280;6465;42.700;23.278;2024-03-08T09:55:04;95182.53;;;8.44;70.88
12803;BME280;6465;42.700;23.278;2024-03-08T09:57:32;95181.44;;;8.28;68.58
12803;BME280;6465;42.700;23.278;2024-03-08T10:00:00;95182.84;;;8.37;68.03
12803;BME280;6465;42.700;23.278;2024-03-08T10:02:28;95190.69;;;8.37;68.11
12803;BME280;6465;42.700;23.278;2024-03-08T10:04:57;95189.91;;;8.34;67.50
12803;BME280;6465;42.700;23.278;2024-03-08T10:07:24;95197.91;;;8.28;66.39
12803;BME280;6465;42.700;23.278;2024-03-08T10:09:52;95188.78;;;8.18;67.71
12803;BME280;6465;42.700;23.278;2024-03-08T10:12:19;95181.34;;;7.86;69.80
12803;BME280;6465;42.700;23.278;2024-03-08T10:14:46;95183.28;;;7.81;69.69
12803;BME280;6465;42.700;23.278;2024-03-08T10:17:13;95186.84;;;7.78;69.20
12803;BME280;6465;42.700;23.278;2024-03-08T10:19:49;95177.94;;;7.84;69.61
12803;BME280;6465;42.700;23.278;2024-03-08T10:22:16;95178.75;;;7.86;68.30
12803;BME280;6465;42.700;23.278;2024-03-08T10:24:44;95182.44;;;8.02;67.09
12803;BME280;6465;42.700;23.278;2024-03-08T10:27:11;95177.38;;;7.99;67.84
12803;BME280;6465;42.700;23.278;2024-03-08T10:29:38;95184.03;;;8.06;67.18
12803;BME280;6465;42.700;23.278;2024-03-08T10:32:09;95177.38;;;8.21;67.02
12803;BME280;6465;42.700;23.278;2024-03-08T10:34:37;95176.94;;;8.10;67.82
12803;BME280;6465;42.700;23.278;2024-03-08T10:37:07;95172.88;;;8.24;66.71
12803;BME280;6465;42.700;23.278;2024-03-08T10:39:39;95169.22;;;8.28;67.25
12803;BME280;6465;42.700;23.278;2024-03-08T10:42:11;95167.72;;;8.23;66.25
12803;BME280;6465;42.700;23.278;2024-03-08T10:44:53;95165.28;;;8.42;66.95
12803;BME280;6465;42.700;23.278;2024-03-08T10:47:26;95169.59;;;8.63;64.13
12803;BME280;6465;42.700;23.278;2024-03-08T10:50:07;95170.94;;;8.51;61.58
12803;BME280;6465;42.700;23.278;2024-03-08T10:52:40;95161.72;;;8.21;62.29
12803;BME280;6465;42.700;23.278;2024-03-08T10:55:07;95165.28;;;8.18;64.13
12803;BME280;6465;42.700;23.278;2024-03-08T10:57:38;95156.94;;;8.32;64.38
12803;BME280;6465;42.700;23.278;2024-03-08T11:00:06;95147.63;;;8.25;64.55
12803;BME280;6465;42.700;23.278;2024-03-08T11:02:35;95150.06;;;8.51;65.16
12803;BME280;6465;42.700;23.278;2024-03-08T11:05:04;95141.47;;;8.69;65.29
12803;BME280;6465;42.700;23.278;2024-03-08T11:07:33;95139.00;;;8.66;65.51
12803;BME280;6465;42.700;23.278;2024-03-08T11:10:04;95131.75;;;8.73;66.16
12803;BME280;6465;42.700;23.278;2024-03-08T11:12:36;95136.81;;;8.96;65.28
12803;BME280;6465;42.700;23.278;2024-03-08T11:15:10;95130.44;;;8.83;63.64
12803;BME280;6465;42.700;23.278;2024-03-08T11:17:45;95130.56;;;8.80;64.00
12803;BME280;6465;42.700;23.278;2024-03-08T11:20:14;95129.00;;;8.76;64.26
12803;BME280;6465;42.700;23.278;2024-03-08T11:22:47;95128.75;;;8.82;64.99
12803;BME280;6465;42.700;23.278;2024-03-08T11:25:34;95128.88;;;8.79;64.71
12803;BME280;6465;42.700;23.278;2024-03-08T11:28:10;95129.25;;;8.90;64.79
12803;BME280;6465;42.700;23.278;2024-03-08T11:30:43;95123.59;;;8.81;63.75
12803;BME280;6465;42.700;23.278;2024-03-08T11:33:12;95120.72;;;8.87;64.02
12803;BME280;6465;42.700;23.278;2024-03-08T11:35:39;95111.50;;;8.78;64.65
12803;BME280;6465;42.700;23.278;2024-03-08T11:38:08;95121.69;;;8.84;64.03
12803;BME280;6465;42.700;23.278;2024-03-08T11:40:37;95117.69;;;8.75;64.02
12803;BME280;6465;42.700;23.278;2024-03-08T11:43:05;95117.53;;;8.80;63.78
12803;BME280;6465;42.700;23.278;2024-03-08T11:45:33;95109.97;;;8.74;63.57
12803;BME280;6465;42.700;23.278;2024-03-08T11:48:02;95123.97;;;8.71;62.92
12803;BME280;6465;42.700;23.278;2024-03-08T11:50:30;95115.88;;;8.78;61.95
12803;BME280;6465;42.700;23.278;2024-03-08T11:53:03;95097.59;;;8.98;61.70
12803;BME280;6465;42.700;23.278;2024-03-08T11:55:30;95101.84;;;9.00;62.17
12803;BME280;6465;42.700;23.278;2024-03-08T11:58:05;95108.22;;;9.13;61.95
12803;BME280;6465;42.700;23.278;2024-03-08T12:00:36;95108.84;;;9.19;62.88
12803;BME280;6465;42.700;23.278;2024-03-08T12:03:22;95104.81;;;9.11;63.20
12803;BME280;6465;42.700;23.278;2024-03-08T12:05:57;95111.72;;;8.94;62.96
12803;BME280;6465;42.700;23.278;2024-03-08T12:08:25;95103.75;;;8.77;64.27
12803;BME280;6465;42.700;23.278;2024-03-08T12:10:53;95104.41;;;8.61;64.10
12803;BME280;6465;42.700;23.278;2024-03-08T12:13:26;95106.28;;;8.58;63.71
12803;BME280;6465;42.700;23.278;2024-03-08T12:15:56;95104.00;;;8.50;62.90
12803;BME280;6465;42.700;23.278;2024-03-08T12:18:24;95103.34;;;8.45;63.09
12803;BME280;6465;42.700;23.278;2024-03-08T12:20:54;95108.63;;;8.22;63.50
12803;BME280;6465;42.700;23.278;2024-03-08T12:23:31;95104.72;;;8.33;63.49
12803;BME280;6465;42.700;23.278;2024-03-08T12:26:09;95096.81;;;8.55;64.03
12803;BME280;6465;42.700;23.278;2024-03-08T12:28:40;95095.06;;;8.76;63.36
12803;BME280;6465;42.700;23.278;2024-03-08T12:31:07;95089.44;;;8.85;63.71
12803;BME280;6465;42.700;23.278;2024-03-08T12:33:36;95095.88;;;8.97;64.59
12803;BME280;6465;42.700;23.278;2024-03-08T12:36:03;95090.63;;;8.78;65.03
12803;BME280;6465;42.700;23.278;2024-03-08T12:38:32;95097.28;;;8.85;63.67
12803;BME280;6465;42.700;23.278;2024-03-08T12:41:01;95082.22;;;8.71;64.61
12803;BME280;6465;42.700;23.278;2024-03-08T12:43:28;95083.66;;;8.58;64.66
12803;BME280;6465;42.700;23.278;2024-03-08T12:45:58;95088.00;;;8.58;64.17
12803;BME280;6465;42.700;23.278;2024-03-08T12:48:26;95085.41;;;8.58;63.75
12803;BME280;6465;42.700;23.278;2024-03-08T12:50:53;95076.13;;;8.51;65.02
12803;BME280;6465;42.700;23.278;2024-03-08T12:53:20;95079.97;;;8.42;65.64
12803;BME280;6465;42.700;23.278;2024-03-08T12:55:48;95081.47;;;8.27;65.38
12803;BME280;6465;42.700;23.278;2024-03-08T12:58:15;95068.78;;;8.18;65.65
12803;BME280;6465;42.700;23.278;2024-03-08T13:00:43;95086.34;;;8.15;66.16
12803;BME280;6465;42.700;23.278;2024-03-08T13:03:11;95078.06;;;8.04;66.50
12803;BME280;6465;42.700;23.278;2024-03-08T13:05:38;95085.28;;;8.19;66.52
12803;BME280;6465;42.700;23.278;2024-03-08T13:08:08;95075.69;;;8.19;66.19
12803;BME280;6465;42.700;23.278;2024-03-08T13:10:38;95079.38;;;8.35;66.00
12803;BME280;6465;42.700;23.278;2024-03-08T13:13:05;95071.44;;;8.39;66.16
12803;BME280;6465;42.700;23.278;2024-03-08T13:15:32;95089.44;;;8.45;65.48
12803;BME280;6465;42.700;23.278;2024-03-08T13:17:59;95079.03;;;8.23;65.53